sensor_id;sensor_type;location;lat;lon;timestamp;pressure;altitude;pressure_sealevel;temperature;humidity
80640;BME280;69992;60.170;24.692;2023-07-08T00:00:23;101393.46;;;11.18;22.88
80640;BME280;69992;60.170;24.692;2023-07-08T00:02:48;101390.83;;;11.13;22.88
80640;BME280;69992;60.170;24.692;2023-07-08T00:05:16;101385.38;;;11.10;22.90
80640;BME280;69992;60.170;24.692;2023-07-08T00:07:40;101383.79;;;12.07;22.90
80640;BME280;69992;60.170;24.692;2023-07-08T00:10:11;101381.38;;;12.06;22.90
80640;BME280;69992;60.170;24.692;2023-07-08T00:12:30;101380.49;;;12.09;22.89
80640;BME280;69992;60.170;24.692;2023-07-08T00:14:55;101378.34;;;11.09;22.89
80640;BME280;69992;60.170;24.692;2023-07-08T00:17:21;101376.12;;;11.07;22.90
80640;BME280;69992;60.170;24.692;2023-07-08T00:19:46;101374.39;;;10.09;22.89
80640;BME280;69992;60.170;24.692;2023-07-08T00:22:12;101372.18;;;12.00;22.90
80640;BME280;69992;60.170;24.692;2023-07-08T00:24:37;101372.93;;;9.99;22.90
80640;BME280;69992;60.170;24.692;2023-07-08T00:27:03;101374.38;;;10.95;22.90
80640;BME280;69992;60.170;24.692;2023-07-08T00:29:28;101377.20;;;10.94;22.89
80640;BME280;69992;60.170;24.692;2023-07-08T00:31:54;101380.93;;;11.90;22.91
80640;BME280;69992;60.170;24.692;2023-07-08T00:34:20;101380.75;;;11.89;22.89
80640;BME280;69992;60.170;24.692;2023-07-08T00:36:45;101381.36;;;11.87;22.90
80640;BME280;69992;60.170;24.692;2023-07-08T00:39:14;101385.30;;;11.87;22.91
80640;BME280;69992;60.170;24.692;2023-07-08T00:41:38;101387.51;;;10.93;22.89
80640;BME280;69992;60.170;24.692;2023-07-08T00:44:03;101384.76;;;10.91;22.89
80640;BME280;69992;60.170;24.692;2023-07-08T00:46:37;101381.97;;;10.88;22.90
80640;BME280;69992;60.170;24.692;2023-07-08T00:48:57;101382.22;;;11.89;22.89
80640;BME280;69992;60.170;24.692;2023-07-08T00:51:19;101379.74;;;11.86;22.89
80640;BME280;69992;60.170;24.692;2023-07-08T00:53:44;101377.51;;;10.86;22.89
80640;BME280;69992;60.170;24.692;2023-07-08T00:56:13;101377.31;;;10.83;22.91
80640;BME280;69992;60.170;24.692;2023-07-08T00:58:39;101375.24;;;11.82;22.92
80640;BME280;69992;60.170;24.692;2023-07-08T01:01:05;101377.13;;;10.87;22.89
80640;BME280;69992;60.170;24.692;2023-07-08T01:03:27;101375.50;;;11.86;22.88
80640;BME280;69992;60.170;24.692;2023-07-08T01:05:52;101373.62;;;11.85;22.90
80640;BME280;69992;60.170;24.692;2023-07-08T01:08:18;101375.11;;;11.86;22.90
80640;BME280;69992;60.170;24.692;2023-07-08T01:10:47;101374.59;;;11.85;22.91
80640;BME280;69992;60.170;24.692;2023-07-08T01:13:10;101372.98;;;11.84;22.92
80640;BME280;69992;60.170;24.692;2023-07-08T01:15:38;101374.65;;;11.87;22.91
80640;BME280;69992;60.170;24.692;2023-07-08T01:18:01;101373.66;;;11.87;22.91
80640;BME280;69992;60.170;24.692;2023-07-08T01:20:26;101372.48;;;11.86;22.91
80640;BME280;69992;60.170;24.692;2023-07-08T01:22:51;101372.40;;;10.86;22.92
80640;BME280;69992;60.170;24.692;2023-07-08T01:25:17;101370.75;;;11.81;22.93
80640;BME280;69992;60.170;24.692;2023-07-08T01:27:46;101373.49;;;11.81;22.94
80640;BME280;69992;60.170;24.692;2023-07-08T01:30:10;101372.15;;;11.81;22.94
80640;BME280;69992;60.170;24.692;2023-07-08T01:32:34;101372.18;;;11.82;22.93
80640;BME280;69992;60.170;24.692;2023-07-08T01:35:01;101371.01;;;11.82;22.94
80640;BME280;69992;60.170;24.692;2023-07-08T01:37:30;101373.32;;;11.83;22.93
80640;BME280;69992;60.170;24.692;2023-07-08T01:39:50;101369.21;;;11.83;22.94
80640;BME280;69992;60.170;24.692;2023-07-08T01:42:16;101367.66;;;11.81;22.95
80640;BME280;69992;60.170;24.692;2023-07-08T01:44:42;101367.93;;;11.80;22.97
80640;BME280;69992;60.170;24.692;2023-07-08T01:47:11;101366.76;;;11.81;22.95
80640;BME280;69992;60.170;24.692;2023-07-08T01:49:34;101366.08;;;11.80;22.94
80640;BME280;69992;60.170;24.692;2023-07-08T01:51:59;101363.77;;;11.78;22.95
80640;BME280;69992;60.170;24.692;2023-07-08T01:54:24;101363.82;;;11.78;22.95
80640;BME280;69992;60.170;24.692;2023-07-08T01:56:55;101364.34;;;10.76;22.98
80640;BME280;69992;60.170;24.692;2023-07-08T01:59:15;101364.75;;;11.71;22.98
80640;BME280;69992;60.170;24.692;2023-07-08T02:01:40;101363.63;;;11.69;22.98
80640;BME280;69992;60.170;24.692;2023-07-08T02:04:06;101361.01;;;11.65;22.99
80640;BME280;69992;60.170;24.692;2023-07-08T02:06:31;101362.58;;;11.61;23.00
80640;BME280;69992;60.170;24.692;2023-07-08T02:08:57;101358.93;;;11.59;23.01
80640;BME280;69992;60.170;24.692;2023-07-08T02:11:23;101356.20;;;11.57;23.03
80640;BME280;69992;60.170;24.692;2023-07-08T02:13:49;101353.87;;;11.52;23.04
80640;BME280;69992;60.170;24.692;2023-07-08T02:16:14;101354.88;;;11.47;23.05
80640;BME280;69992;60.170;24.692;2023-07-08T02:18:39;101355.84;;;11.45;23.05
80640;BME280;69992;60.170;24.692;2023-07-08T02:21:05;101358.67;;;11.43;23.07
80640;BME280;69992;60.170;24.692;2023-07-08T02:23:31;101358.85;;;11.43;23.02
80640;BME280;69992;60.170;24.692;2023-07-08T02:25:56;101360.17;;;11.42;23.06
80640;BME280;69992;60.170;24.692;2023-07-08T02:28:22;101357.42;;;11.41;23.07
80640;BME280;69992;60.170;24.692;2023-07-08T02:30:47;101354.90;;;11.42;23.08
80640;BME280;69992;60.170;24.692;2023-07-08T02:33:13;101352.31;;;11.43;23.06
80640;BME280;69992;60.170;24.692;2023-07-08T02:35:38;101352.73;;;11.46;23.08
80640;BME280;69992;60.170;24.692;2023-07-08T02:38:04;101355.35;;;11.49;23.06
80640;BME280;69992;60.170;24.692;2023-07-08T02:40:29;101357.89;;;10.55;23.06
80640;BME280;69992;60.170;24.692;2023-07-08T02:42:55;101360.90;;;11.57;23.06
80640;BME280;69992;60.170;24.692;2023-07-08T02:45:20;101360.24;;;11.58;23.07
80640;BME280;69992;60.170;24.692;2023-07-08T02:47:46;101360.41;;;11.55;23.09
80640;BME280;69992;60.170;24.692;2023-07-08T02:50:12;101361.29;;;10.59;23.10
80640;BME280;69992;60.170;24.692;2023-07-08T02:52:37;101361.25;;;11.58;23.10
80640;BME280;69992;60.170;24.692;2023-07-08T02:55:03;101362.18;;;10.61;23.10
80640;BME280;69992;60.170;24.692;2023-07-08T02:57:28;101360.91;;;11.62;23.10
80640;BME280;69992;60.170;24.692;2023-07-08T02:59:53;101361.04;;;10.68;23.08
80640;BME280;69992;60.170;24.692;2023-07-08T03:02:20;101355.58;;;11.69;23.08
80640;BME280;69992;60.170;24.692;2023-07-08T03:04:45;101356.17;;;10.74;23.09
80640;BME280;69992;60.170;24.692;2023-07-08T03:07:11;101359.36;;;11.76;23.09
80640;BME280;69992;60.170;24.692;2023-07-08T03:09:36;101358.20;;;11.81;23.08
80640;BME280;69992;60.170;24.692;2023-07-08T03:12:01;101356.88;;;11.85;23.09
80640;BME280;69992;60.170;24.692;2023-07-08T03:14:27;101354.55;;;11.90;23.09
80640;BME280;69992;60.170;24.692;2023-07-08T03:16:52;101355.17;;;11.97;23.08
80640;BME280;69992;60.170;24.692;2023-07-08T03:19:18;101355.73;;;12.03;23.08
80640;BME280;69992;60.170;24.692;2023-07-08T03:21:44;101354.67;;;11.10;23.07
80640;BME280;69992;60.170;24.692;2023-07-08T03:24:10;101353.13;;;11.11;23.10
80640;BME280;69992;60.170;24.692;2023-07-08T03:26:35;101351.90;;;11.20;23.09
80640;BME280;69992;60.170;24.692;2023-07-08T03:29:00;101351.41;;;11.26;23.10
80640;BME280;69992;60.170;24.692;2023-07-08T03:31:26;101350.78;;;12.32;23.10
80640;BME280;69992;60.170;24.692;2023-07-08T03:33:51;101351.14;;;12.38;23.09
80640;BME280;69992;60.170;24.692;2023-07-08T03:36:18;101351.19;;;11.46;23.09
80640;BME280;69992;60.170;24.692;2023-07-08T03:38:43;101349.42;;;12.49;23.10
80640;BME280;69992;60.170;24.692;2023-07-08T03:41:08;101350.34;;;12.53;23.11
80640;BME280;69992;60.170;24.692;2023-07-08T03:43:34;101347.91;;;11.62;23.11
80640;BME280;69992;60.170;24.692;2023-07-08T03:45:59;101351.62;;;10.73;23.07
80640;BME280;69992;60.170;24.692;2023-07-08T03:48:25;101353.44;;;11.79;23.07
80640;BME280;69992;60.170;24.692;2023-07-08T03:50:50;101353.01;;;11.87;23.08
80640;BME280;69992;60.170;24.692;2023-07-08T03:53:16;101356.34;;;11.89;23.08
80640;BME280;69992;60.170;24.692;2023-07-08T03:55:41;101359.25;;;11.95;23.08
80640;BME280;69992;60.170;24.692;2023-07-08T03:58:07;101359.72;;;11.98;23.10
80640;BME280;69992;60.170;24.692;2023-07-08T04:00:33;101360.47;;;11.06;23.11
80640;BME280;69992;60.170;24.692;2023-07-08T04:02:58;101357.25;;;12.05;23.10
80640;BME280;69992;60.170;24.692;2023-07-08T04:05:23;101355.16;;;13.08;23.09
80640;BME280;69992;60.170;24.692;2023-07-08T04:07:49;101356.99;;;12.16;23.10
80640;BME280;69992;60.170;24.692;2023-07-08T04:10:15;101357.07;;;11.28;23.11
80640;BME280;69992;60.170;24.692;2023-07-08T04:12:40;101359.18;;;12.39;23.09
80640;BME280;69992;60.170;24.692;2023-07-08T04:15:08;101356.89;;;12.46;23.10
80640;BME280;69992;60.170;24.692;2023-07-08T04:17:31;101355.54;;;11.62;23.08
80640;BME280;69992;60.170;24.692;2023-07-08T04:19:57;101358.26;;;12.74;23.05
80640;BME280;69992;60.170;24.692;2023-07-08T04:22:22;101358.92;;;12.85;23.06
80640;BME280;69992;60.170;24.692;2023-07-08T04:24:48;101352.06;;;12.01;23.07
80640;BME280;69992;60.170;24.692;2023-07-08T04:27:14;101352.63;;;12.16;23.07
80640;BME280;69992;60.170;24.692;2023-07-08T04:29:39;101353.03;;;13.29;23.05
80640;BME280;69992;60.170;24.692;2023-07-08T04:32:05;101354.18;;;13.42;23.06
80640;BME280;69992;60.170;24.692;2023-07-08T04:34:30;101356.55;;;12.61;23.05
80640;BME280;69992;60.170;24.692;2023-07-08T04:36:55;101352.58;;;14.63;23.07
80640;BME280;69992;60.170;24.692;2023-07-08T04:39:21;101352.28;;;11.66;23.08
80640;BME280;69992;60.170;24.692;2023-07-08T04:41:46;101354.13;;;12.64;23.11
80640;BME280;69992;60.170;24.692;2023-07-08T04:44:12;101353.77;;;11.65;23.11
80640;BME280;69992;60.170;24.692;2023-07-08T04:46:39;101352.51;;;12.70;23.11
80640;BME280;69992;60.170;24.692;2023-07-08T04:49:04;101355.70;;;10.92;23.10
80640;BME280;69992;60.170;24.692;2023-07-08T04:51:29;101361.64;;;13.03;23.10
80640;BME280;69992;60.170;24.692;2023-07-08T04:53:54;101360.84;;;13.22;23.09
80640;BME280;69992;60.170;24.692;2023-07-08T04:56:19;101360.10;;;13.51;23.08
80640;BME280;69992;60.170;24.692;2023-07-08T04:58:45;101363.60;;;12.81;23.05
80640;BME280;69992;60.170;24.692;2023-07-08T05:01:10;101360.68;;;13.12;23.02
80640;BME280;69992;60.170;24.692;2023-07-08T05:03:35;101359.78;;;14.42;22.98
80640;BME280;69992;60.170;24.692;2023-07-08T05:06:01;101353.68;;;14.69;22.98
80640;BME280;69992;60.170;24.692;2023-07-08T05:08:27;101351.04;;;12.98;22.99
80640;BME280;69992;60.170;24.692;2023-07-08T05:10:52;101349.69;;;13.22;22.99
80640;BME280;69992;60.170;24.692;2023-07-08T05:13:18;101349.12;;;13.51;22.95
80640;BME280;69992;60.170;24.692;2023-07-08T05:15:43;101349.90;;;13.79;22.94
80640;BME280;69992;60.170;24.692;2023-07-08T05:18:08;101350.55;;;13.98;22.96
80640;BME280;69992;60.170;24.692;2023-07-08T05:20:34;101352.01;;;14.09;22.99
80640;BME280;69992;60.170;24.692;2023-07-08T05:23:00;101351.29;;;14.09;23.03
80640;BME280;69992;60.170;24.692;2023-07-08T05:25:25;101350.80;;;14.19;23.05
80640;BME280;69992;60.170;24.692;2023-07-08T05:27:51;101346.53;;;14.43;23.01
80640;BME280;69992;60.170;24.692;2023-07-08T05:30:17;101343.57;;;14.60;23.00
80640;BME280;69992;60.170;24.692;2023-07-08T05:32:42;101345.02;;;14.77;23.01
80640;BME280;69992;60.170;24.692;2023-07-08T05:35:08;101343.86;;;14.78;23.11
80640;BME280;69992;60.170;24.692;2023-07-08T05:37:33;101344.14;;;14.76;23.11
80640;BME280;69992;60.170;24.692;2023-07-08T05:39:58;101341.78;;;14.86;23.10
80640;BME280;69992;60.170;24.692;2023-07-08T05:42:24;101342.41;;;15.01;23.11
80640;BME280;69992;60.170;24.692;2023-07-08T05:44:49;101347.43;;;14.22;23.11
80640;BME280;69992;60.170;24.692;2023-07-08T05:47:15;101346.74;;;15.34;23.12
80640;BME280;69992;60.170;24.692;2023-07-08T05:49:41;101345.95;;;13.53;23.10
80640;BME280;69992;60.170;24.692;2023-07-08T05:52:06;101348.63;;;14.50;23.14
80640;BME280;69992;60.170;24.692;2023-07-08T05:54:31;101348.87;;;14.53;23.17
80640;BME280;69992;60.170;24.692;2023-07-08T05:56:57;101348.50;;;13.65;23.18
80640;BME280;69992;60.170;24.692;2023-07-08T05:59:22;101346.41;;;13.85;23.16
80640;BME280;69992;60.170;24.692;2023-07-08T06:01:47;101346.92;;;15.03;23.15
80640;BME280;69992;60.170;24.692;2023-07-08T06:04:13;101349.85;;;14.13;23.15
80640;BME280;69992;60.170;24.692;2023-07-08T06:06:38;101348.98;;;15.23;23.14
80640;BME280;69992;60.170;24.692;2023-07-08T06:09:04;101346.20;;;14.26;23.20
80640;BME280;69992;60.170;24.692;2023-07-08T06:11:29;101345.63;;;14.44;23.16
80640;BME280;69992;60.170;24.692;2023-07-08T06:13:55;101345.23;;;14.45;23.20
80640;BME280;69992;60.170;24.692;2023-07-08T06:16:20;101347.41;;;15.57;23.20
80640;BME280;69992;60.170;24.692;2023-07-08T06:18:46;101349.38;;;14.91;23.16
80640;BME280;69992;60.170;24.692;2023-07-08T06:21:11;101351.36;;;15.21;23.13
80640;BME280;69992;60.170;24.692;2023-07-08T06:23:37;101350.63;;;15.38;23.14
80640;BME280;69992;60.170;24.692;2023-07-08T06:26:02;101351.39;;;15.34;23.26
80640;BME280;69992;60.170;24.692;2023-07-08T06:28:28;101348.47;;;14.17;23.27
80640;BME280;69992;60.170;24.692;2023-07-08T06:30:53;101346.07;;;15.11;23.27
80640;BME280;69992;60.170;24.692;2023-07-08T06:33:19;101345.60;;;15.28;23.26
80640;BME280;69992;60.170;24.692;2023-07-08T06:35:44;101345.65;;;15.53;23.24
80640;BME280;69992;60.170;24.692;2023-07-08T06:38:10;101344.71;;;14.65;23.25
80640;BME280;69992;60.170;24.692;2023-07-08T06:40:35;101344.03;;;15.79;23.23
80640;BME280;69992;60.170;24.692;2023-07-08T06:43:02;101344.23;;;15.96;23.26
80640;BME280;69992;60.170;24.692;2023-07-08T06:45:26;101344.51;;;16.18;23.23
80640;BME280;69992;60.170;24.692;2023-07-08T06:47:52;101342.70;;;15.31;23.23
80640;BME280;69992;60.170;24.692;2023-07-08T06:50:17;101344.06;;;16.47;23.24
80640;BME280;69992;60.170;24.692;2023-07-08T06:52:43;101343.60;;;15.63;23.25
80640;BME280;69992;60.170;24.692;2023-07-08T06:55:10;101341.73;;;16.66;23.33
80640;BME280;69992;60.170;24.692;2023-07-08T06:57:34;101341.75;;;14.78;23.28
80640;BME280;69992;60.170;24.692;2023-07-08T06:59:59;101345.50;;;14.78;23.33
80640;BME280;69992;60.170;24.692;2023-07-08T07:02:25;101345.17;;;15.88;23.31
80640;BME280;69992;60.170;24.692;2023-07-08T07:04:50;101347.02;;;15.03;23.36
80640;BME280;69992;60.170;24.692;2023-07-08T07:07:15;101347.76;;;15.05;23.36
80640;BME280;69992;60.170;24.692;2023-07-08T07:09:41;101346.98;;;16.25;23.33
80640;BME280;69992;60.170;24.692;2023-07-08T07:12:07;101345.96;;;16.54;23.31
80640;BME280;69992;60.170;24.692;2023-07-08T07:14:32;101344.31;;;15.55;23.41
80640;BME280;69992;60.170;24.692;2023-07-08T07:16:57;101344.76;;;15.67;23.33
80640;BME280;69992;60.170;24.692;2023-07-08T07:19:23;101343.76;;;15.88;23.31
80640;BME280;69992;60.170;24.692;2023-07-08T07:21:48;101345.34;;;16.15;23.29
80640;BME280;69992;60.170;24.692;2023-07-08T07:24:14;101348.29;;;16.35;23.28
80640;BME280;69992;60.170;24.692;2023-07-08T07:26:39;101350.72;;;16.41;23.31
80640;BME280;69992;60.170;24.692;2023-07-08T07:29:05;101348.83;;;16.63;23.31
80640;BME280;69992;60.170;24.692;2023-07-08T07:31:30;101352.47;;;15.97;23.26
80640;BME280;69992;60.170;24.692;2023-07-08T07:33:56;101355.75;;;17.10;23.29
80640;BME280;69992;60.170;24.692;2023-07-08T07:36:21;101355.73;;;16.07;23.31
80640;BME280;69992;60.170;24.692;2023-07-08T07:38:46;101353.67;;;16.11;23.32
80640;BME280;69992;60.170;24.692;2023-07-08T07:41:12;101353.68;;;16.18;23.31
80640;BME280;69992;60.170;24.692;2023-07-08T07:43:37;101350.30;;;17.31;23.31
80640;BME280;69992;60.170;24.692;2023-07-08T07:46:03;101352.44;;;17.63;23.28
80640;BME280;69992;60.170;24.692;2023-07-08T07:48:28;101352.52;;;15.95;23.29
80640;BME280;69992;60.170;24.692;2023-07-08T07:50:54;101352.29;;;16.13;23.29
80640;BME280;69992;60.170;24.692;2023-07-08T07:53:19;101351.93;;;17.20;23.29
80640;BME280;69992;60.170;24.692;2023-07-08T07:55:45;101350.56;;;16.33;23.28
80640;BME280;69992;60.170;24.692;2023-07-08T07:58:10;101348.72;;;17.32;23.31
80640;BME280;69992;60.170;24.692;2023-07-08T08:00:36;101348.01;;;17.25;23.31
80640;BME280;69992;60.170;24.692;2023-07-08T08:03:01;101348.74;;;16.51;23.31
80640;BME280;69992;60.170;24.692;2023-07-08T08:05:26;101352.25;;;16.52;23.35
80640;BME280;69992;60.170;24.692;2023-07-08T08:07:52;101356.17;;;16.44;23.40
80640;BME280;69992;60.170;24.692;2023-07-08T08:10:17;101351.65;;;16.48;23.40
80640;BME280;69992;60.170;24.692;2023-07-08T08:12:43;101347.10;;;17.69;23.42
80640;BME280;69992;60.170;24.692;2023-07-08T08:15:09;101348.54;;;17.03;23.44
80640;BME280;69992;60.170;24.692;2023-07-08T08:17:34;101345.54;;;17.41;23.44
80640;BME280;69992;60.170;24.692;2023-07-08T08:19:59;101343.40;;;17.67;23.43
80640;BME280;69992;60.170;24.692;2023-07-08T08:22:24;101344.37;;;16.76;23.42
80640;BME280;69992;60.170;24.692;2023-07-08T08:24:50;101343.66;;;17.79;23.45
80640;BME280;69992;60.170;24.692;2023-07-08T08:27:15;101345.07;;;17.96;23.44
80640;BME280;69992;60.170;24.692;2023-07-08T08:29:41;101346.16;;;18.05;23.46
80640;BME280;69992;60.170;24.692;2023-07-08T08:32:07;101347.38;;;18.13;23.47
80640;BME280;69992;60.170;24.692;2023-07-08T08:34:32;101344.06;;;18.37;23.52
80640;BME280;69992;60.170;24.692;2023-07-08T08:36:57;101338.61;;;17.52;23.49
80640;BME280;69992;60.170;24.692;2023-07-08T08:39:22;101338.19;;;17.88;23.49
80640;BME280;69992;60.170;24.692;2023-07-08T08:41:50;101337.78;;;19.33;23.47
80640;BME280;69992;60.170;24.692;2023-07-08T08:44:17;101337.20;;;18.73;23.43
80640;BME280;69992;60.170;24.692;2023-07-08T08:46:42;101332.71;;;18.23;23.39
80640;BME280;69992;60.170;24.692;2023-07-08T08:49:12;101326.32;;;18.73;23.34
80640;BME280;69992;60.170;24.692;2023-07-08T08:51:32;101325.43;;;19.47;23.28
80640;BME280;69992;60.170;24.692;2023-07-08T08:53:56;101321.72;;;19.98;23.22
80640;BME280;69992;60.170;24.692;2023-07-08T08:56:23;101326.18;;;19.99;23.21
80640;BME280;69992;60.170;24.692;2023-07-08T08:58:52;101323.70;;;19.70;23.23
80640;BME280;69992;60.170;24.692;2023-07-08T09:01:13;101327.31;;;19.25;23.26
80640;BME280;69992;60.170;24.692;2023-07-08T09:03:42;101322.43;;;19.07;23.30
80640;BME280;69992;60.170;24.692;2023-07-08T09:06:11;101319.02;;;18.86;23.39
80640;BME280;69992;60.170;24.692;2023-07-08T09:08:31;101312.66;;;18.79;23.43
80640;BME280;69992;60.170;24.692;2023-07-08T09:10:56;101309.40;;;19.05;23.41
80640;BME280;69992;60.170;24.692;2023-07-08T09:13:24;101311.62;;;19.63;23.39
80640;BME280;69992;60.170;24.692;2023-07-08T09:15:44;101322.74;;;19.43;23.31
80640;BME280;69992;60.170;24.692;2023-07-08T09:18:17;101321.09;;;19.64;23.25
80640;BME280;69992;60.170;24.692;2023-07-08T09:20:35;101321.24;;;19.77;23.23
80640;BME280;69992;60.170;24.692;2023-07-08T09:23:04;101319.31;;;18.88;23.24
80640;BME280;69992;60.170;24.692;2023-07-08T09:25:30;101318.15;;;19.00;23.24
80640;BME280;69992;60.170;24.692;2023-07-08T09:27:51;101321.71;;;18.80;23.24
80640;BME280;69992;60.170;24.692;2023-07-08T09:30:18;101329.81;;;19.22;23.31
80640;BME280;69992;60.170;24.692;2023-07-08T09:32:42;101330.79;;;18.65;23.36
80640;BME280;69992;60.170;24.692;2023-07-08T09:35:09;101331.26;;;18.01;23.45
80640;BME280;69992;60.170;24.692;2023-07-08T09:37:35;101334.41;;;18.55;23.51
80640;BME280;69992;60.170;24.692;2023-07-08T09:40:00;101332.17;;;18.30;23.54
80640;BME280;69992;60.170;24.692;2023-07-08T09:42:28;101329.49;;;18.14;23.56
80640;BME280;69992;60.170;24.692;2023-07-08T09:44:54;101327.65;;;17.01;23.58
80640;BME280;69992;60.170;24.692;2023-07-08T09:47:21;101327.68;;;18.96;23.55
80640;BME280;69992;60.170;24.692;2023-07-08T09:49:44;101322.16;;;18.54;23.45
80640;BME280;69992;60.170;24.692;2023-07-08T09:52:06;101326.97;;;19.43;23.24
80640;BME280;69992;60.170;24.692;2023-07-08T09:54:31;101327.60;;;20.63;22.98
80640;BME280;69992;60.170;24.692;2023-07-08T09:57:00;101332.14;;;19.93;22.95
80640;BME280;69992;60.170;24.692;2023-07-08T09:59:25;101328.95;;;19.97;23.03
80640;BME280;69992;60.170;24.692;2023-07-08T10:01:47;101326.44;;;19.11;23.15
80640;BME280;69992;60.170;24.692;2023-07-08T10:04:13;101333.53;;;19.45;23.26
80640;BME280;69992;60.170;24.692;2023-07-08T10:06:38;101332.46;;;19.80;23.38
80640;BME280;69992;60.170;24.692;2023-07-08T10:09:08;101332.56;;;18.31;23.44
80640;BME280;69992;60.170;24.692;2023-07-08T10:11:31;101332.46;;;18.83;23.51
80640;BME280;69992;60.170;24.692;2023-07-08T10:13:59;101328.99;;;18.66;23.51
80640;BME280;69992;60.170;24.692;2023-07-08T10:16:23;101327.27;;;20.83;23.24
80640;BME280;69992;60.170;24.692;2023-07-08T10:18:45;101330.30;;;22.39;22.79
80640;BME280;69992;60.170;24.692;2023-07-08T10:21:18;101338.14;;;23.69;22.33
80640;BME280;69992;60.170;24.692;2023-07-08T10:23:43;101347.27;;;23.07;22.17
80640;BME280;69992;60.170;24.692;2023-07-08T10:26:10;101342.42;;;23.18;22.11
80640;BME280;69992;60.170;24.692;2023-07-08T10:28:35;101338.79;;;24.29;21.92
80640;BME280;69992;60.170;24.692;2023-07-08T10:31:01;101335.42;;;24.60;21.59
80640;BME280;69992;60.170;24.692;2023-07-08T10:33:31;101335.32;;;24.39;21.70
80640;BME280;69992;60.170;24.692;2023-07-08T10:35:50;101329.29;;;24.31;22.00
80640;BME280;69992;60.170;24.692;2023-07-08T10:38:21;101324.25;;;23.99;22.12
80640;BME280;69992;60.170;24.692;2023-07-08T10:40:43;101323.90;;;24.44;22.15
80640;BME280;69992;60.170;24.692;2023-07-08T10:43:18;101317.96;;;24.84;22.02
80640;BME280;69992;60.170;24.692;2023-07-08T10:45:29;101320.44;;;26.14;21.74
80640;BME280;69992;60.170;24.692;2023-07-08T10:48:00;101328.09;;;25.98;21.84
80640;BME280;69992;60.170;24.692;2023-07-08T10:50:25;101329.94;;;24.55;22.13
80640;BME280;69992;60.170;24.692;2023-07-08T10:52:51;101329.09;;;24.61;22.46
80640;BME280;69992;60.170;24.692;2023-07-08T10:55:24;101328.08;;;22.75;22.77
80640;BME280;69992;60.170;24.692;2023-07-08T10:57:46;101344.45;;;22.01;23.00
80640;BME280;69992;60.170;24.692;2023-07-08T11:00:03;101342.11;;;20.95;23.21
80640;BME280;69992;60.170;24.692;2023-07-08T11:02:36;101344.49;;;18.86;23.46
80640;BME280;69992;60.170;24.692;2023-07-08T11:04:56;101346.78;;;19.31;23.69
80640;BME280;69992;60.170;24.692;2023-07-08T11:07:19;101344.07;;;20.02;23.83
80640;BME280;69992;60.170;24.692;2023-07-08T11:09:42;101346.31;;;19.88;23.91
80640;BME280;69992;60.170;24.692;2023-07-08T11:12:11;101351.21;;;18.20;24.00
80640;BME280;69992;60.170;24.692;2023-07-08T11:14:37;101354.58;;;18.74;24.07
80640;BME280;69992;60.170;24.692;2023-07-08T11:17:03;101362.71;;;18.26;24.06
80640;BME280;69992;60.170;24.692;2023-07-08T11:19:26;101363.39;;;18.64;24.07
80640;BME280;69992;60.170;24.692;2023-07-08T11:21:49;101368.13;;;18.37;24.10
80640;BME280;69992;60.170;24.692;2023-07-08T11:24:17;101371.87;;;18.23;24.09
80640;BME280;69992;60.170;24.692;2023-07-08T11:26:42;101374.94;;;18.10;24.08
80640;BME280;69992;60.170;24.692;2023-07-08T11:29:05;101376.98;;;18.07;24.08
80640;BME280;69992;60.170;24.692;2023-07-08T11:31:32;101378.55;;;17.87;24.07
80640;BME280;69992;60.170;24.692;2023-07-08T11:33:54;101376.28;;;17.51;24.07
80640;BME280;69992;60.170;24.692;2023-07-08T11:36:20;101380.12;;;17.37;24.06
80640;BME280;69992;60.170;24.692;2023-07-08T11:38:48;101373.77;;;17.68;24.03
80640;BME280;69992;60.170;24.692;2023-07-08T11:41:13;101367.82;;;18.00;23.98
80640;BME280;69992;60.170;24.692;2023-07-08T11:43:42;101367.73;;;19.02;23.88
80640;BME280;69992;60.170;24.692;2023-07-08T11:46:05;101368.88;;;20.08;23.73
80640;BME280;69992;60.170;24.692;2023-07-08T11:48:29;101370.00;;;20.77;23.36
80640;BME280;69992;60.170;24.692;2023-07-08T11:50:52;101371.70;;;22.69;23.13
80640;BME280;69992;60.170;24.692;2023-07-08T11:55:46;101378.68;;;22.07;22.99
80640;BME280;69992;60.170;24.692;2023-07-08T12:00:34;101380.94;;;20.83;23.20
80640;BME280;69992;60.170;24.692;2023-07-08T12:03:12;101386.03;;;20.21;23.31
80640;BME280;69992;60.170;24.692;2023-07-08T12:05:32;101383.21;;;19.79;23.42
80640;BME280;69992;60.170;24.692;2023-07-08T12:07:55;101385.15;;;19.59;23.47
80640;BME280;69992;60.170;24.692;2023-07-08T12:10:17;101382.63;;;21.25;23.52
80640;BME280;69992;60.170;24.692;2023-07-08T12:12:43;101384.96;;;19.96;23.58
80640;BME280;69992;60.170;24.692;2023-07-08T12:15:20;101387.63;;;18.75;23.63
80640;BME280;69992;60.170;24.692;2023-07-08T12:17:32;101388.34;;;20.76;23.62
80640;BME280;69992;60.170;24.692;2023-07-08T12:20:00;101386.97;;;20.87;23.63
80640;BME280;69992;60.170;24.692;2023-07-08T12:22:23;101390.19;;;22.06;23.60
80640;BME280;69992;60.170;24.692;2023-07-08T12:24:48;101391.86;;;20.58;23.64
80640;BME280;69992;60.170;24.692;2023-07-08T12:27:13;101389.99;;;19.93;23.71
80640;BME280;69992;60.170;24.692;2023-07-08T12:29:39;101392.40;;;19.25;23.79
80640;BME280;69992;60.170;24.692;2023-07-08T12:32:05;101394.16;;;19.50;23.88
80640;BME280;69992;60.170;24.692;2023-07-08T12:34:30;101399.12;;;18.75;23.97